Time;durP1;ratioP1;P1;durP2;ratioP2;P2;SDS_P1;SDS_P2;PMS_P1;PMS_P2;Temp;Humidity;BMP_temperature;BMP_pressure;BME280_temperature;BME280_humidity;BME280_pressure;Samples;Min_cycle;Max_cycle;Signal;HPM_P1;HPM_P2
2023/06/01 00:00:15;;;;;;;5.93;3.50;;;15.30;99.90;;;;;;5039054;28;20395;-80
2023/06/01 00:02:41;;;;;;;3.80;3.50;;;15.30;99.90;;;;;;5035716;28;20398;-79
2023/06/01 00:05:07;;;;;;;4.07;3.72;;;15.60;99.90;;;;;;5034233;28;20390;-80
2023/06/01 00:07:33;;;;;;;4.78;3.90;;;15.30;99.90;;;;;;5036404;28;20401;-80
2023/06/01 00:10:00;;;;;;;3.80;3.35;;;15.10;99.90;;;;;;5036076;28;20436;-81
2023/06/01 00:12:25;;;;;;;5.00;3.50;;;15.40;99.90;;;;;;5034528;28;20430;-80
2023/06/01 00:14:51;;;;;;;6.03;4.03;;;15.40;99.90;;;;;;5035044;28;20395;-80
2023/06/01 00:17:17;;;;;;;4.83;3.90;;;15.10;99.90;;;;;;5034762;28;20407;-80
2023/06/01 00:19:44;;;;;;;4.73;3.80;;;15.50;99.90;;;;;;5035886;28;20371;-80
2023/06/01 00:22:10;;;;;;;5.50;3.90;;;15.00;99.90;;;;;;5021427;28;20922;-80
2023/06/01 00:24:36;;;;;;;5.10;3.88;;;14.90;99.90;;;;;;5015716;28;20448;-80
2023/06/01 00:27:02;;;;;;;4.47;3.90;;;15.10;99.90;;;;;;5015052;28;20393;-80
2023/06/01 00:29:28;;;;;;;4.18;3.78;;;15.40;99.90;;;;;;5015625;28;20384;-80
2023/06/01 00:31:53;;;;;;;5.68;3.80;;;15.30;99.90;;;;;;5023434;28;20395;-80
2023/06/01 00:34:19;;;;;;;5.67;4.17;;;15.10;99.90;;;;;;5020037;28;20397;-80
2023/06/01 00:36:45;;;;;;;4.80;4.20;;;15.10;99.90;;;;;;5014620;28;20400;-80
2023/06/01 00:39:10;;;;;;;8.43;4.07;;;15.30;99.90;;;;;;5014930;28;21030;-80
2023/06/01 00:41:36;;;;;;;5.25;3.90;;;15.30;99.90;;;;;;5014867;28;20462;-80
2023/06/01 00:44:01;;;;;;;5.20;3.70;;;15.00;99.90;;;;;;5024688;28;20387;-80
2023/06/01 00:46:29;;;;;;;4.63;4.00;;;15.70;99.90;;;;;;5029236;28;20393;-80
2023/06/01 00:48:55;;;;;;;4.55;3.80;;;15.30;99.90;;;;;;5015134;28;20392;-80
2023/06/01 00:51:21;;;;;;;5.00;4.30;;;15.40;99.90;;;;;;5014894;28;20439;-80
2023/06/01 00:53:47;;;;;;;5.90;4.70;;;15.30;99.90;;;;;;5014935;28;20408;-81
2023/06/01 00:56:13;;;;;;;5.97;4.45;;;15.20;99.90;;;;;;5014454;28;20397;-80
2023/06/01 00:58:39;;;;;;;5.28;4.35;;;14.80;99.90;;;;;;5031030;28;20389;-80
2023/06/01 01:01:05;;;;;;;5.28;4.78;;;15.20;99.90;;;;;;5013421;28;20929;-80
2023/06/01 01:03:34;;;;;;;5.68;4.70;;;15.30;99.90;;;;;;5016383;28;20385;-80
2023/06/01 01:06:35;;;;;;;6.13;4.00;;;15.50;99.90;;;;;;5033212;28;20379;-80
2023/06/01 01:09:18;;;;;;;6.20;4.80;;;15.20;99.90;;;;;;5027927;28;20395;-80
2023/06/01 01:11:55;;;;;;;6.00;4.30;;;15.40;99.90;;;;;;5033526;28;20401;-80
2023/06/01 01:14:29;;;;;;;7.60;4.80;;;14.70;99.90;;;;;;5033707;28;20495;-80
2023/06/01 01:17:02;;;;;;;5.00;4.50;;;14.60;99.90;;;;;;5033734;28;20411;-80
2023/06/01 01:19:47;;;;;;;6.38;5.60;;;14.70;99.90;;;;;;5014684;28;20403;-80
2023/06/01 01:22:43;;;;;;;6.85;4.53;;;14.90;99.90;;;;;;5012673;28;20400;-80
2023/06/01 01:25:18;;;;;;;7.07;4.65;;;15.20;99.90;;;;;;5012965;28;20399;-80
2023/06/01 01:28:05;;;;;;;5.93;4.65;;;14.70;99.90;;;;;;5012520;28;20499;-80
2023/06/01 01:30:32;;;;;;;6.03;4.72;;;14.60;99.90;;;;;;5012459;28;20389;-80
2023/06/01 01:32:59;;;;;;;4.95;4.50;;;16.50;99.90;;;;;;5023227;28;20445;-80
2023/06/01 01:35:26;;;;;;;7.03;4.40;;;14.60;99.90;;;;;;5027356;28;20400;-80
2023/06/01 01:37:53;;;;;;;5.65;5.05;;;14.80;99.90;;;;;;5013511;28;20885;-80
2023/06/01 01:40:18;;;;;;;5.40;4.60;;;14.50;99.90;;;;;;5013978;28;20463;-81
2023/06/01 01:42:44;;;;;;;5.60;5.10;;;14.30;99.90;;;;;;5012026;28;20480;-81
2023/06/01 01:45:11;;;;;;;6.35;4.72;;;14.30;99.90;;;;;;5013602;28;20377;-81
2023/06/01 01:47:41;;;;;;;5.43;4.90;;;14.50;99.90;;;;;;5014822;28;20400;-81
2023/06/01 01:50:12;;;;;;;5.38;4.15;;;14.50;99.90;;;;;;5012464;28;20485;-79
2023/06/01 01:52:39;;;;;;;6.55;5.00;;;14.20;99.90;;;;;;5029848;28;20538;-79
2023/06/01 01:55:09;;;;;;;7.30;5.35;;;14.60;99.90;;;;;;5033325;28;20877;-79
2023/06/01 01:57:35;;;;;;;5.10;4.57;;;14.50;99.90;;;;;;5033019;28;20759;-80
2023/06/01 02:00:02;;;;;;;6.40;4.70;;;14.50;99.90;;;;;;5034915;28;20390;-80
2023/06/01 02:02:28;;;;;;;6.47;4.85;;;14.50;99.90;;;;;;5034890;28;20407;-80
2023/06/01 02:04:54;;;;;;;6.10;5.60;;;14.40;99.90;;;;;;5023940;28;20412;-80
2023/06/01 02:07:19;;;;;;;5.18;4.68;;;15.80;99.90;;;;;;5013712;28;20385;-80
2023/06/01 02:09:45;;;;;;;5.93;5.20;;;16.00;99.90;;;;;;5013176;28;20431;-80
2023/06/01 02:12:10;;;;;;;8.00;4.90;;;14.60;99.90;;;;;;5031765;28;20950;-80
2023/06/01 02:14:36;;;;;;;6.63;5.50;;;14.20;99.90;;;;;;5031632;28;20395;-80
2023/06/01 02:17:02;;;;;;;6.80;5.23;;;14.30;99.90;;;;;;5032297;28;20383;-80
2023/06/01 02:19:28;;;;;;;6.40;4.80;;;14.20;99.90;;;;;;5031224;28;20395;-80
2023/06/01 02:21:54;;;;;;;5.28;4.78;;;14.00;99.90;;;;;;5032326;28;20430;-80
2023/06/01 02:24:20;;;;;;;5.30;4.60;;;14.20;99.90;;;;;;5032396;28;20893;-80
2023/06/01 02:26:48;;;;;;;5.38;4.40;;;14.30;99.90;;;;;;5032030;28;20449;-80
2023/06/01 02:29:14;;;;;;;5.40;4.70;;;13.80;99.90;;;;;;5032913;28;20391;-80
2023/06/01 02:31:40;;;;;;;6.05;4.35;;;14.20;99.90;;;;;;5032484;28;20445;-80
2023/06/01 02:34:05;;;;;;;6.18;4.88;;;13.90;99.90;;;;;;5031303;28;20422;-80
2023/06/01 02:36:31;;;;;;;5.00;4.37;;;13.90;99.90;;;;;;5014575;28;20755;-80
2023/06/01 02:38:58;;;;;;;5.50;5.00;;;13.90;99.90;;;;;;5012539;28;20479;-80
2023/06/01 02:41:24;;;;;;;6.30;4.65;;;14.20;99.90;;;;;;5013577;28;20417;-80
2023/06/01 02:43:50;;;;;;;5.33;4.53;;;14.20;99.90;;;;;;5014139;28;20385;-80
2023/06/01 02:46:17;;;;;;;5.97;4.82;;;14.10;99.90;;;;;;5028854;28;20486;-80
2023/06/01 02:48:43;;;;;;;5.72;4.90;;;14.10;99.90;;;;;;5030192;28;20389;-80
2023/06/01 02:51:09;;;;;;;6.63;5.38;;;14.20;99.90;;;;;;5025967;28;20411;-81
2023/06/01 02:53:34;;;;;;;7.27;5.67;;;14.00;99.90;;;;;;5030581;28;20405;-82
2023/06/01 02:56:00;;;;;;;5.37;4.87;;;14.20;99.90;;;;;;5030454;28;20377;-81
2023/06/01 02:58:25;;;;;;;5.93;5.35;;;14.20;99.90;;;;;;5049283;28;20418;-79
2023/06/01 03:00:51;;;;;;;6.43;5.83;;;14.00;99.90;;;;;;5037729;28;20909;-79
2023/06/01 03:03:16;;;;;;;5.77;5.27;;;14.00;99.90;;;;;;5033708;28;20758;-80
2023/06/01 03:05:43;;;;;;;6.97;5.47;;;13.90;99.90;;;;;;5012629;28;20415;-80
2023/06/01 03:08:08;;;;;;;6.30;4.90;;;14.20;99.90;;;;;;5013546;28;20811;-79
2023/06/01 03:10:34;;;;;;;5.90;5.40;;;13.90;99.90;;;;;;5013344;28;20404;-79
2023/06/01 03:13:00;;;;;;;5.70;5.10;;;13.60;99.90;;;;;;5014986;28;20381;-79
2023/06/01 03:15:27;;;;;;;7.70;5.80;;;13.70;99.90;;;;;;5029100;28;20394;-79
2023/06/01 03:17:52;;;;;;;6.32;5.30;;;13.30;99.90;;;;;;5037032;28;20386;-79
2023/06/01 03:20:18;;;;;;;5.60;5.00;;;13.50;99.90;;;;;;5034348;28;20395;-80
2023/06/01 03:22:45;;;;;;;5.72;5.00;;;13.60;99.90;;;;;;5030901;28;21008;-80
2023/06/01 03:25:12;;;;;;;5.97;5.38;;;15.00;99.90;;;;;;5032580;28;20394;-80
2023/06/01 03:27:41;;;;;;;5.75;5.10;;;13.60;99.90;;;;;;5031289;28;20436;-80
2023/06/01 03:30:11;;;;;;;6.40;5.80;;;13.70;99.90;;;;;;5013293;28;20397;-80
2023/06/01 03:32:38;;;;;;;5.90;5.40;;;13.80;99.90;;;;;;5016346;28;20384;-80
2023/06/01 03:35:07;;;;;;;6.07;5.57;;;13.20;99.90;;;;;;5014935;28;20416;-80
2023/06/01 03:37:34;;;;;;;5.87;5.37;;;13.80;99.90;;;;;;5015258;28;20384;-80
2023/06/01 03:40:00;;;;;;;5.82;5.10;;;13.80;99.90;;;;;;5016028;28;20403;-80
2023/06/01 03:42:25;;;;;;;6.22;5.30;;;13.90;99.90;;;;;;5014455;28;20498;-80
2023/06/01 03:44:51;;;;;;;6.07;5.30;;;13.70;99.90;;;;;;5032825;28;20395;-80
2023/06/01 03:47:16;;;;;;;5.77;5.27;;;13.50;99.90;;;;;;5035073;28;20441;-80
2023/06/01 03:49:42;;;;;;;6.03;5.35;;;13.70;99.90;;;;;;5035912;28;20893;-80
2023/06/01 03:52:08;;;;;;;5.60;5.10;;;14.10;99.90;;;;;;5035818;28;20469;-80
2023/06/01 03:54:34;;;;;;;6.90;5.70;;;13.60;99.90;;;;;;5027540;28;20483;-80
2023/06/01 03:57:00;;;;;;;5.65;5.15;;;14.00;99.90;;;;;;5014836;28;20400;-80
2023/06/01 03:59:26;;;;;;;6.10;5.50;;;13.70;99.90;;;;;;5015325;28;20392;-80
2023/06/01 04:01:51;;;;;;;6.30;4.83;;;13.90;99.90;;;;;;5016316;28;20448;-80
2023/06/01 04:04:20;;;;;;;6.30;5.40;;;13.90;99.90;;;;;;5018964;28;20397;-82
2023/06/01 04:06:46;;;;;;;5.53;5.03;;;13.60;99.90;;;;;;5031169;28;20814;-80
2023/06/01 04:09:11;;;;;;;6.55;5.00;;;13.60;99.90;;;;;;5037410;28;20382;-80
2023/06/01 04:11:39;;;;;;;6.93;5.60;;;13.50;99.90;;;;;;5035129;28;20394;-80
2023/06/01 04:14:05;;;;;;;7.43;5.65;;;13.60;99.90;;;;;;5035403;28;20387;-81
2023/06/01 04:16:31;;;;;;;6.90;5.23;;;13.30;99.90;;;;;;5034414;28;20885;-80
2023/06/01 04:18:56;;;;;;;7.70;5.70;;;13.30;99.90;;;;;;5035314;28;20387;-80
2023/06/01 04:21:22;;;;;;;5.75;5.25;;;13.20;99.90;;;;;;5034306;28;20407;-80
2023/06/01 04:23:48;;;;;;;6.22;5.63;;;13.50;99.90;;;;;;5015886;28;20438;-80
2023/06/01 04:26:15;;;;;;;5.82;5.20;;;13.30;99.90;;;;;;5013091;28;20385;-82
2023/06/01 04:28:43;;;;;;;6.70;5.82;;;13.20;99.90;;;;;;5016194;28;20455;-79
2023/06/01 04:31:16;;;;;;;6.50;5.90;;;13.30;99.90;;;;;;5015826;28;20947;-80
2023/06/01 04:33:44;;;;;;;6.82;6.15;;;13.80;99.90;;;;;;5026206;28;20494;-80
2023/06/01 04:36:13;;;;;;;7.05;6.13;;;13.50;99.90;;;;;;5034286;28;20387;-82
2023/06/01 04:38:42;;;;;;;6.22;5.63;;;13.60;99.90;;;;;;5016661;28;20392;-80
2023/06/01 04:41:12;;;;;;;6.00;5.40;;;12.90;99.90;;;;;;5012924;28;20423;-80
2023/06/01 04:43:40;;;;;;;6.00;5.40;;;13.60;99.90;;;;;;5015374;28;20447;-80
2023/06/01 04:46:07;;;;;;;6.53;5.93;;;13.40;99.90;;;;;;5014191;28;20415;-80
2023/06/01 04:48:33;;;;;;;6.38;5.78;;;13.50;99.90;;;;;;5016737;28;20404;-80
2023/06/01 04:50:59;;;;;;;5.68;5.18;;;13.70;99.90;;;;;;5034107;28;20379;-80
2023/06/01 04:53:26;;;;;;;6.10;5.60;;;13.90;99.90;;;;;;5033051;28;20402;-80
2023/06/01 04:55:51;;;;;;;6.97;5.45;;;13.90;99.90;;;;;;5034653;28;20388;-80
2023/06/01 04:58:17;;;;;;;7.05;5.90;;;14.00;99.90;;;;;;5032328;28;20438;-80
2023/06/01 05:00:43;;;;;;;6.60;5.90;;;14.10;99.90;;;;;;5033274;28;20418;-80
2023/06/01 05:03:08;;;;;;;6.20;5.60;;;13.80;99.90;;;;;;5016850;28;20404;-80
2023/06/01 05:05:34;;;;;;;7.35;6.32;;;13.90;99.90;;;;;;5031327;28;20397;-80
2023/06/01 05:07:59;;;;;;;6.83;5.80;;;14.20;99.90;;;;;;5033546;28;20458;-80
2023/06/01 05:10:25;;;;;;;7.30;5.90;;;14.00;99.90;;;;;;5033591;28;20793;-80
2023/06/01 05:12:51;;;;;;;5.70;5.20;;;14.00;99.90;;;;;;5022523;28;20393;-80
2023/06/01 05:15:16;;;;;;;7.00;5.65;;;16.30;99.90;;;;;;5013721;28;20463;-80
2023/06/01 05:17:42;;;;;;;7.20;6.07;;;13.90;99.90;;;;;;5013522;28;20381;-80
2023/06/01 05:20:11;;;;;;;5.88;5.28;;;14.30;99.90;;;;;;5014340;28;20377;-81
2023/06/01 05:22:37;;;;;;;7.10;5.50;;;14.20;99.90;;;;;;5026246;28;20438;-80
2023/06/01 05:25:03;;;;;;;6.27;5.10;;;14.90;99.90;;;;;;5032815;28;20384;-80
2023/06/01 05:27:28;;;;;;;6.30;5.40;;;15.10;99.90;;;;;;5033733;28;20383;-81
2023/06/01 05:29:55;;;;;;;6.23;5.63;;;14.50;99.90;;;;;;5033696;28;20406;-81
2023/06/01 05:32:20;;;;;;;8.07;5.18;;;14.50;99.90;;;;;;5032793;28;20418;-80
2023/06/01 05:34:46;;;;;;;6.13;5.63;;;14.70;99.90;;;;;;5018653;28;20400;-80
2023/06/01 05:37:11;;;;;;;5.57;5.07;;;14.80;99.90;;;;;;5015278;28;20412;-80
2023/06/01 05:39:37;;;;;;;7.97;5.80;;;15.10;99.90;;;;;;5017831;28;20388;-80
2023/06/01 05:42:03;;;;;;;5.75;5.10;;;15.10;99.90;;;;;;5016911;28;20411;-80
2023/06/01 05:44:31;;;;;;;6.63;5.10;;;15.10;99.90;;;;;;5020181;28;20393;-80
2023/06/01 05:46:56;;;;;;;5.45;4.93;;;15.20;99.90;;;;;;5035314;28;20406;-79
2023/06/01 05:49:22;;;;;;;6.50;5.00;;;14.70;99.90;;;;;;5036473;28;20395;-80
2023/06/01 05:51:47;;;;;;;6.00;5.40;;;15.20;99.90;;;;;;5035110;28;20383;-80
2023/06/01 05:54:15;;;;;;;5.90;5.40;;;15.30;99.90;;;;;;5083943;23;20512;-84
2023/06/01 05:56:41;;;;;;;7.38;5.30;;;14.80;99.90;;;;;;5054814;28;20401;-85
2023/06/01 05:59:06;;;;;;;5.97;5.38;;;15.70;99.90;;;;;;5036672;28;20389;-85
2023/06/01 06:01:32;;;;;;;5.40;4.90;;;15.60;99.90;;;;;;5036776;28;20402;-83
2023/06/01 06:03:58;;;;;;;6.63;4.72;;;15.90;99.90;;;;;;5048790;28;20397;-84
2023/06/01 06:06:25;;;;;;;5.07;4.57;;;15.90;99.90;;;;;;5024998;28;20799;-83
2023/06/01 06:08:51;;;;;;;5.00;4.60;;;16.00;99.90;;;;;;5067698;28;20405;-81
2023/06/01 06:11:16;;;;;;;6.57;4.60;;;15.70;99.90;;;;;;5057909;28;20420;-81
2023/06/01 06:13:42;;;;;;;7.60;5.40;;;15.80;99.90;;;;;;5050525;28;20405;-81
2023/06/01 06:16:07;;;;;;;6.40;4.87;;;15.80;99.90;;;;;;5030208;28;20410;-82
2023/06/01 06:18:33;;;;;;;7.50;4.50;;;16.20;99.90;;;;;;5014320;28;20935;-81
2023/06/01 06:20:59;;;;;;;7.47;5.00;;;15.60;99.90;;;;;;5018869;28;20395;-82
2023/06/01 06:23:24;;;;;;;5.60;4.95;;;16.00;99.90;;;;;;5035094;28;20413;-84
2023/06/01 06:25:50;;;;;;;8.87;5.10;;;16.30;99.90;;;;;;5019081;28;20383;-83
2023/06/01 06:28:15;;;;;;;5.73;5.17;;;16.50;99.90;;;;;;5036861;28;21051;-84
2023/06/01 06:30:41;;;;;;;6.15;4.80;;;16.50;99.90;;;;;;5039187;28;20377;-82
2023/06/01 06:33:07;;;;;;;5.47;4.60;;;18.30;99.90;;;;;;5069955;28;20397;-80
2023/06/01 06:35:32;;;;;;;6.97;5.20;;;16.60;99.90;;;;;;5058297;28;20436;-80
2023/06/01 06:37:58;;;;;;;7.10;5.00;;;16.10;99.90;;;;;;5039359;28;20379;-81
2023/06/01 06:40:24;;;;;;;7.10;4.75;;;16.80;99.90;;;;;;5055437;28;20454;-81
2023/06/01 06:42:50;;;;;;;7.30;4.90;;;16.40;99.90;;;;;;5055912;28;20409;-81
2023/06/01 06:45:16;;;;;;;6.00;4.65;;;16.60;99.90;;;;;;5038722;28;20399;-80
2023/06/01 06:47:45;;;;;;;6.95;5.18;;;16.60;99.90;;;;;;5038364;28;20539;-82
2023/06/01 06:50:11;;;;;;;8.90;4.93;;;16.40;99.90;;;;;;5055086;28;20396;-80
2023/06/01 06:52:37;;;;;;;5.20;4.70;;;19.70;99.90;;;;;;5057853;28;20390;-82
2023/06/01 06:55:03;;;;;;;5.93;4.50;;;16.90;99.90;;;;;;5058247;28;20392;-83
2023/06/01 06:57:28;;;;;;;5.03;4.47;;;17.20;99.90;;;;;;5057178;28;20428;-84
2023/06/01 06:59:54;;;;;;;7.20;4.73;;;17.80;99.90;;;;;;5048450;28;20780;-85
2023/06/01 07:02:19;;;;;;;5.63;4.70;;;18.30;99.90;;;;;;5057538;28;21117;-85
2023/06/01 07:04:45;;;;;;;6.72;4.70;;;17.10;99.90;;;;;;5040329;28;20510;-84
2023/06/01 07:07:11;;;;;;;7.50;4.90;;;18.80;99.90;;;;;;5059751;28;20377;-84
2023/06/01 07:09:36;;;;;;;7.53;4.73;;;16.70;99.90;;;;;;5041097;28;20396;-84
2023/06/01 07:12:02;;;;;;;6.23;4.60;;;17.30;99.90;;;;;;5038636;28;20771;-85
2023/06/01 07:14:28;;;;;;;7.68;5.40;;;17.40;99.90;;;;;;5040663;28;20397;-85
2023/06/01 07:16:53;;;;;;;5.80;4.70;;;21.50;99.90;;;;;;5042901;28;20484;-85
2023/06/01 07:19:19;;;;;;;4.83;4.33;;;20.10;99.90;;;;;;5041200;28;20393;-84
2023/06/01 07:21:45;;;;;;;6.47;4.40;;;17.30;99.90;;;;;;5053119;28;20441;-85
2023/06/01 07:24:10;;;;;;;5.10;4.03;;;17.20;99.90;;;;;;5051137;28;20397;-85
2023/06/01 07:26:36;;;;;;;7.00;4.40;;;18.50;99.90;;;;;;5041327;28;20794;-85
2023/06/01 07:29:02;;;;;;;7.50;4.40;;;17.60;99.90;;;;;;5039093;28;20464;-85
2023/06/01 07:31:27;;;;;;;4.80;3.72;;;17.40;99.90;;;;;;5038771;28;20404;-85
2023/06/01 07:33:55;;;;;;;8.57;4.40;;;18.10;99.90;;;;;;5032798;28;20395;-85
2023/06/01 07:36:23;;;;;;;7.72;4.03;;;17.70;99.90;;;;;;5043137;28;20962;-85
2023/06/01 07:38:51;;;;;;;5.72;4.10;;;20.00;99.90;;;;;;5041374;28;20880;-85
2023/06/01 07:41:17;;;;;;;9.20;5.50;;;20.30;99.90;;;;;;5043075;28;20425;-85
2023/06/01 07:43:42;;;;;;;7.30;4.50;;;17.90;99.90;;;;;;5044586;28;20814;-85
2023/06/01 07:46:08;;;;;;;7.13;4.17;;;19.90;99.90;;;;;;5039150;28;20422;-85
2023/06/01 07:48:36;;;;;;;7.30;4.50;;;18.40;99.90;;;;;;5042146;28;20409;-84
2023/06/01 07:51:03;;;;;;;7.25;4.95;;;18.10;99.90;;;;;;5028668;28;20395;-85
2023/06/01 07:53:28;;;;;;;5.60;4.43;;;18.60;99.90;;;;;;5030869;28;20399;-83
2023/06/01 07:55:55;;;;;;;5.63;4.40;;;20.10;99.90;;;;;;5054756;28;20453;-82
2023/06/01 07:58:20;;;;;;;6.43;4.60;;;20.70;99.90;;;;;;5056036;28;20383;-83
2023/06/01 08:00:46;;;;;;;5.30;4.50;;;21.10;99.90;;;;;;5057594;28;20422;-83
2023/06/01 08:03:11;;;;;;;7.35;4.47;;;20.30;99.90;;;;;;5043843;28;20400;-84
2023/06/01 08:05:37;;;;;;;7.90;4.67;;;21.30;99.90;;;;;;5056352;28;20397;-85
2023/06/01 08:08:03;;;;;;;6.63;4.53;;;18.80;99.90;;;;;;5066645;28;20386;-85
2023/06/01 08:10:29;;;;;;;4.93;4.40;;;19.10;99.90;;;;;;5048423;28;20381;-83
2023/06/01 08:12:57;;;;;;;6.85;4.60;;;18.60;99.90;;;;;;5077121;28;20389;-85
2023/06/01 08:15:25;;;;;;;8.18;4.60;;;19.20;99.90;;;;;;5051437;28;20419;-84
2023/06/01 08:17:51;;;;;;;6.57;4.47;;;21.30;99.90;;;;;;5050812;28;20804;-86
2023/06/01 08:20:21;;;;;;;7.20;4.55;;;19.20;99.90;;;;;;5039744;28;20397;-85
2023/06/01 08:22:47;;;;;;;7.05;5.18;;;19.10;99.90;;;;;;5038958;28;20858;-83
2023/06/01 08:25:14;;;;;;;6.03;4.53;;;18.70;99.90;;;;;;5041175;28;20382;-85
2023/06/01 08:27:40;;;;;;;7.07;4.60;;;18.70;99.90;;;;;;5031044;28;20396;-85
2023/06/01 08:30:07;;;;;;;7.82;4.47;;;20.90;99.90;;;;;;5040742;28;20386;-84
2023/06/01 08:32:32;;;;;;;6.33;4.63;;;19.50;99.90;;;;;;5058429;28;20473;-84
2023/06/01 08:34:58;;;;;;;5.40;4.50;;;18.90;99.90;;;;;;5023539;28;20403;-84
2023/06/01 08:37:23;;;;;;;5.13;4.10;;;19.80;99.90;;;;;;5023181;28;20429;-83
2023/06/01 08:39:49;;;;;;;6.07;4.37;;;20.80;99.90;;;;;;5023390;28;20410;-84
2023/06/01 08:42:31;;;;;;;4.63;3.90;;;22.10;99.90;;;;;;5041063;28;20531;-85
2023/06/01 08:44:58;;;;;;;7.30;4.95;;;19.60;99.90;;;;;;5019307;28;20436;-84
2023/06/01 08:47:27;;;;;;;8.13;4.70;;;21.60;99.90;;;;;;5020111;28;20788;-83
2023/06/01 08:49:53;;;;;;;6.38;4.80;;;19.60;99.90;;;;;;5032526;28;20385;-84
2023/06/01 08:52:20;;;;;;;5.80;4.50;;;20.20;99.90;;;;;;5057899;28;20752;-85
2023/06/01 08:54:46;;;;;;;5.43;4.43;;;19.50;99.90;;;;;;5041086;28;21014;-85
2023/06/01 08:57:13;;;;;;;7.47;4.60;;;20.00;99.90;;;;;;5037435;28;20396;-85
2023/06/01 08:59:39;;;;;;;5.20;4.30;;;19.60;99.90;;;;;;5039934;28;20385;-83
2023/06/01 09:02:06;;;;;;;6.25;4.90;;;21.30;99.90;;;;;;5040436;28;20485;-85
2023/06/01 09:04:34;;;;;;;7.78;4.18;;;20.20;99.90;;;;;;5048384;28;21005;-85
2023/06/01 09:06:59;;;;;;;6.00;4.40;;;20.10;99.90;;;;;;5028994;28;20393;-86
2023/06/01 09:09:25;;;;;;;4.87;3.80;;;20.80;99.90;;;;;;5056442;28;20527;-85
2023/06/01 09:12:16;;;;;;;6.10;4.80;;;19.90;99.90;;;;;;5053984;28;20397;-85
2023/06/01 09:14:41;;;;;;;7.97;4.30;;;20.20;99.90;;;;;;5057025;28;21063;-83
2023/06/01 09:17:21;;;;;;;6.27;4.30;;;20.40;99.90;;;;;;5057946;28;20400;-84
2023/06/01 09:19:47;;;;;;;6.68;4.40;;;20.70;99.90;;;;;;5058529;28;20418;-85
2023/06/01 09:22:13;;;;;;;8.70;4.70;;;21.80;99.90;;;;;;5057657;28;20873;-85
2023/06/01 09:24:42;;;;;;;5.07;4.55;;;21.10;99.90;;;;;;5041226;28;20897;-84
2023/06/01 09:27:08;;;;;;;5.90;4.50;;;22.00;99.90;;;;;;5039076;28;20385;-84
2023/06/01 09:29:33;;;;;;;9.10;5.05;;;20.90;99.90;;;;;;5056972;28;20460;-84
2023/06/01 09:32:00;;;;;;;5.60;4.60;;;22.90;99.90;;;;;;5038824;28;20394;-85
2023/06/01 09:34:26;;;;;;;6.43;4.33;;;20.80;99.90;;;;;;5040592;28;20398;-84
2023/06/01 09:36:54;;;;;;;6.53;4.13;;;22.90;99.90;;;;;;5029672;28;20404;-84
2023/06/01 09:39:22;;;;;;;6.13;4.80;;;21.20;99.90;;;;;;5020725;28;20421;-83
2023/06/01 09:41:55;;;;;;;7.90;4.35;;;21.50;99.90;;;;;;5025336;28;20437;-84
2023/06/01 09:44:28;;;;;;;5.70;4.20;;;21.10;99.90;;;;;;5057618;28;20389;-84
2023/06/01 09:47:14;;;;;;;6.25;4.00;;;23.50;99.90;;;;;;5038921;28;20386;-84
2023/06/01 09:49:42;;;;;;;5.53;4.30;;;20.90;99.90;;;;;;5039524;28;20374;-85
2023/06/01 09:52:07;;;;;;;5.97;4.60;;;21.60;99.90;;;;;;5057763;28;20427;-85
2023/06/01 09:54:54;;;;;;;5.80;4.60;;;21.50;99.90;;;;;;5028097;28;20438;-84
2023/06/01 09:57:23;;;;;;;5.10;4.60;;;21.40;99.90;;;;;;5018555;28;20405;-85
2023/06/01 09:59:49;;;;;;;5.63;4.03;;;22.90;99.90;;;;;;5039083;28;20437;-85
2023/06/01 10:02:19;;;;;;;5.50;4.63;;;21.90;99.90;;;;;;5035608;28;20403;-84
2023/06/01 10:04:49;;;;;;;6.73;4.20;;;21.90;99.90;;;;;;5047874;28;20393;-83
2023/06/01 10:07:16;;;;;;;6.20;4.50;;;22.30;99.90;;;;;;5038256;28;20397;-85
2023/06/01 10:09:46;;;;;;;6.57;4.20;;;24.10;99.90;;;;;;5036067;28;20385;-84
2023/06/01 10:12:11;;;;;;;5.22;4.32;;;22.20;99.90;;;;;;5036919;28;20397;-84
2023/06/01 10:14:38;;;;;;;6.83;4.00;;;22.40;99.90;;;;;;5037652;28;20392;-84
2023/06/01 10:17:05;;;;;;;10.85;4.32;;;22.60;99.90;;;;;;5027112;28;20402;-85
2023/06/01 10:19:31;;;;;;;6.95;4.85;;;22.70;99.90;;;;;;5022092;28;20476;-84
2023/06/01 10:21:59;;;;;;;6.53;4.57;;;25.20;99.90;;;;;;5052979;28;20423;-84
2023/06/01 10:24:26;;;;;;;6.13;4.20;;;22.00;99.90;;;;;;5030312;28;20383;-85
2023/06/01 10:27:15;;;;;;;5.82;4.70;;;24.70;99.90;;;;;;5027782;28;20401;-85
2023/06/01 10:29:41;;;;;;;5.95;4.22;;;23.70;99.90;;;;;;5028861;28;20522;-84
2023/06/01 10:32:50;;;;;;;7.22;3.97;;;24.90;99.90;;;;;;5028097;28;20926;-86
2023/06/01 10:35:28;;;;;;;4.82;4.20;;;22.90;99.90;;;;;;5017469;28;20454;-83
2023/06/01 10:38:06;;;;;;;6.50;4.60;;;23.90;99.90;;;;;;5036070;28;20383;-83
2023/06/01 10:40:33;;;;;;;7.38;4.70;;;22.50;99.90;;;;;;5016792;28;20398;-84
2023/06/01 10:42:59;;;;;;;4.77;4.10;;;23.30;99.90;;;;;;5030013;28;20390;-85
2023/06/01 10:45:33;;;;;;;6.40;4.97;;;24.70;99.90;;;;;;5036671;28;20373;-84
2023/06/01 10:48:00;;;;;;;7.05;4.70;;;22.80;99.90;;;;;;5055243;28;20435;-84
2023/06/01 10:50:25;;;;;;;7.20;4.90;;;23.60;99.90;;;;;;5035682;28;20383;-84
2023/06/01 10:52:51;;;;;;;5.20;4.10;;;23.10;99.90;;;;;;5035008;28;20399;-83
2023/06/01 10:55:17;;;;;;;4.90;4.40;;;23.30;99.90;;;;;;5017157;28;20430;-82
2023/06/01 10:57:46;;;;;;;6.27;4.10;;;25.90;99.90;;;;;;5033928;28;20411;-84
2023/06/01 11:00:27;;;;;;;5.38;4.10;;;25.90;99.90;;;;;;5033387;28;20822;-83
2023/06/01 11:03:00;;;;;;;8.27;4.70;;;23.90;99.90;;;;;;5053919;28;20479;-84
2023/06/01 11:05:38;;;;;;;6.85;4.03;;;23.90;84.40;;;;;;5046805;28;20416;-83
2023/06/01 11:08:29;;;;;;;7.18;4.00;;;24.10;99.90;;;;;;5056559;28;20381;-83
2023/06/01 11:10:59;;;;;;;5.32;4.82;;;25.40;63.60;;;;;;5024396;28;20389;-83
2023/06/01 11:13:31;;;;;;;5.07;4.47;;;24.80;99.90;;;;;;5045500;28;20409;-81
2023/06/01 11:16:22;;;;;;;6.43;5.00;;;24.60;99.90;;;;;;5036338;28;20383;-82
2023/06/01 11:18:58;;;;;;;6.13;4.22;;;24.60;99.90;;;;;;5046711;28;20406;-83
2023/06/01 11:21:33;;;;;;;7.45;4.70;;;25.10;99.90;;;;;;5037668;28;20475;-82
2023/06/01 11:24:01;;;;;;;5.20;4.60;;;25.10;22.60;;;;;;5044215;28;20754;-83
2023/06/01 11:26:40;;;;;;;5.63;4.00;;;25.30;18.80;;;;;;5027485;28;20397;-82
2023/06/01 11:29:21;;;;;;;5.88;4.43;;;25.10;99.90;;;;;;5024375;28;20478;-84
2023/06/01 11:31:48;;;;;;;5.30;4.20;;;25.30;19.10;;;;;;5041957;28;20466;-83
2023/06/01 11:34:18;;;;;;;5.78;4.47;;;25.80;16.40;;;;;;5026465;28;20395;-82
2023/06/01 11:36:50;;;;;;;4.93;4.43;;;28.00;92.00;;;;;;5027603;28;20406;-83
2023/06/01 11:39:20;;;;;;;6.85;4.38;;;25.70;99.90;;;;;;5025815;28;20438;-84
2023/06/01 11:41:47;;;;;;;5.95;3.90;;;27.00;99.90;;;;;;5022176;28;20425;-84
2023/06/01 11:44:14;;;;;;;8.18;4.70;;;27.40;99.90;;;;;;5023683;28;20395;-84
2023/06/01 11:46:55;;;;;;;6.72;4.55;;;28.20;99.90;;;;;;5044537;28;20442;-83
2023/06/01 11:49:21;;;;;;;5.10;4.00;;;28.00;99.90;;;;;;5029301;28;20393;-85
2023/06/01 11:51:47;;;;;;;5.20;4.70;;;28.70;99.90;;;;;;5030847;28;20790;-84
2023/06/01 11:55:31;;;;;;;;;;;;;;;;;;;;;
2023/06/01 11:58:49;;;;;;;5.50;4.10;;;30.80;99.90;;;;;;5017395;28;20377;-80
2023/06/01 12:01:25;;;;;;;5.27;4.10;;;31.00;60.00;;;;;;5031939;28;20413;-79
2023/06/01 12:04:15;;;;;;;4.40;4.00;;;30.00;99.90;;;;;;5037050;28;20387;-80
2023/06/01 12:06:42;;;;;;;5.03;4.20;;;29.10;1.00;;;;;;5024901;28;20405;-79
2023/06/01 12:09:08;;;;;;;4.07;3.75;;;30.00;1.00;;;;;;5026657;28;20379;-80
2023/06/01 12:11:35;;;;;;;4.70;4.30;;;29.70;1.00;;;;;;5010231;28;20426;-80
2023/06/01 12:14:02;;;;;;;6.55;4.40;;;28.80;3.20;;;;;;5024653;28;20918;-80
2023/06/01 12:16:58;;;;;;;5.10;4.22;;;28.70;9.30;;;;;;5029450;28;20422;-78
2023/06/01 12:19:24;;;;;;;5.28;4.40;;;28.80;69.90;;;;;;5023726;28;20419;-78
2023/06/01 12:21:50;;;;;;;6.50;5.10;;;28.90;99.90;;;;;;5005309;28;20903;-78
2023/06/01 12:24:28;;;;;;;5.15;4.40;;;27.90;99.90;;;;;;5007177;28;20725;-80
2023/06/01 12:26:54;;;;;;;5.15;4.40;;;28.60;99.90;;;;;;5014374;28;20403;-78
2023/06/01 12:29:43;;;;;;;4.20;3.70;;;27.40;99.90;;;;;;5034196;28;20754;-78
2023/06/01 12:32:10;;;;;;;6.10;4.18;;;28.50;99.90;;;;;;5042774;28;20444;-83
2023/06/01 12:34:37;;;;;;;7.05;4.85;;;29.00;99.90;;;;;;5038780;28;20731;-81
2023/06/01 12:37:16;;;;;;;4.95;4.13;;;29.20;1.00;;;;;;5016387;28;20449;-81
2023/06/01 12:39:42;;;;;;;5.10;4.60;;;28.60;99.90;;;;;;5014261;28;20390;-81
2023/06/01 12:42:11;;;;;;;5.85;4.82;;;29.00;1.00;;;;;;5037023;28;21148;-82
2023/06/01 12:44:37;;;;;;;6.18;4.57;;;29.80;1.00;;;;;;5037191;28;20446;-82
2023/06/01 12:47:03;;;;;;;5.13;4.72;;;29.60;1.00;;;;;;5027003;28;20400;-81
2023/06/01 12:49:29;;;;;;;5.47;4.43;;;29.50;1.00;;;;;;5001804;28;20404;-82
2023/06/01 12:51:55;;;;;;;4.65;4.25;;;29.40;1.00;;;;;;5014947;28;20414;-81
2023/06/01 12:54:21;;;;;;;7.67;4.77;;;29.20;1.00;;;;;;5011370;28;20402;-82